Naxos — SVBZ8 — position and weather

sailwx.info

Track history (hours):
 
Tides and Currents Weather Stations Pressure Air Temp Water Temp Dewpoint Dewpoint Depression Visibility Wind Speed Wind Dir Waves Ship Positions

Naxos

Last reported at 2018-Jan-11 08:30 UTC. Time now 2018-Jan-18 13:56 UTC.
Position N 37°56' E 024°33'.

Length 90 m; draft 4.2 m.

Type: Tanker. MMSI: 241338000.

Date/timePositionNaut miles runAvg speedWind from/ knotsBaromVisibWave heightAir tempDewpointWater temp
2018-Jan-11 08:30N 37°56' E 024°33'5 9.6
2018-Jan-11 08:00N 37°54' E 024°28'11 9.9
2018-Jan-11 06:52N 37°49' E 024°14'4 9.8
2018-Jan-11 06:27N 37°48' E 024°10'  
2018-Jan-07 05:34N 37°40' E 024°05'1 9.4
2018-Jan-07 05:28N 37°39' E 024°05'23 9.7
2018-Jan-07 03:09N 37°28' E 024°30'211.3
2018-Jan-07 03:00N 37°27' E 024°31'611.3
2018-Jan-07 02:30N 37°22' E 024°35'611.0
2018-Jan-07 02:00N 37°17' E 024°38'611.1
2018-Jan-07 01:30N 37°12' E 024°41'1111.2
2018-Jan-07 00:30N 37°03' E 024°49'611.3
2018-Jan-07 00:00N 36°58' E 024°53'611.1
2018-Jan-06 23:30N 36°54' E 024°57'510.8
2018-Jan-06 23:00N 36°50' E 025°03'510.7
2018-Jan-06 22:30N 36°47' E 025°08'510.8
2018-Jan-06 22:00N 36°43' E 025°12'511.0
2018-Jan-06 21:30N 36°39' E 025°17'510.9
2018-Jan-06 21:00N 36°35' E 025°21'611.2
2018-Jan-06 20:30N 36°30' E 025°26'510.7
2018-Jan-06 20:00N 36°26' E 025°30'1 1.9
2018-Jan-06 19:30N 36°25' E 025°29'0 0.1
2018-Jan-06 19:00N 36°25' E 025°29'0 0.1
2018-Jan-06 18:30N 36°25' E 025°29'0 0.0
2018-Jan-06 18:00N 36°25' E 025°29'0 0.1
2018-Jan-06 17:30N 36°25' E 025°29'0 0.0
2018-Jan-06 16:57N 36°25' E 025°29'0 0.0
2018-Jan-06 16:30N 36°25' E 025°29'0 0.0
2018-Jan-06 16:00N 36°25' E 025°29'0 0.0
2018-Jan-06 15:30N 36°25' E 025°29'0 0.0
2018-Jan-06 15:00N 36°25' E 025°29'0 0.0
2018-Jan-06 14:30N 36°25' E 025°29'0 0.2
2018-Jan-06 14:00N 36°25' E 025°29'0 0.6
2018-Jan-06 13:29N 36°25' E 025°29'0 0.0
2018-Jan-06 12:59N 36°25' E 025°29'0 0.0
2018-Jan-06 12:29N 36°25' E 025°29'0 0.0
2018-Jan-06 11:59N 36°25' E 025°29'0 0.0
2018-Jan-06 11:29N 36°25' E 025°29'0 0.0
2018-Jan-06 10:59N 36°25' E 025°29'0 0.0
2018-Jan-06 10:29N 36°25' E 025°29'0 0.0
2018-Jan-06 09:59N 36°25' E 025°29'0 0.0
2018-Jan-06 09:29N 36°25' E 025°29'0 0.0
2018-Jan-06 08:59N 36°25' E 025°29'0 0.0
2018-Jan-06 08:29N 36°25' E 025°29'0 0.0
2018-Jan-06 07:59N 36°25' E 025°29'0 0.0
2018-Jan-06 07:29N 36°25' E 025°29'0 0.0
2018-Jan-06 06:59N 36°25' E 025°29'0 0.0
2018-Jan-06 06:29N 36°25' E 025°29'0 0.0
2018-Jan-06 05:59N 36°25' E 025°29'0 0.0
2018-Jan-06 05:29N 36°25' E 025°29'0 0.0
2018-Jan-06 04:59N 36°25' E 025°29'0 0.0
2018-Jan-06 04:29N 36°25' E 025°29'0 0.0
2018-Jan-06 03:59N 36°25' E 025°29'0 0.0
2018-Jan-06 03:29N 36°25' E 025°29'0 0.0
2018-Jan-06 02:59N 36°25' E 025°29'0 0.0
2018-Jan-06 02:29N 36°25' E 025°29'0 0.0
2018-Jan-06 01:59N 36°25' E 025°29'0 0.0
2018-Jan-06 01:29N 36°25' E 025°29'0 0.0
2018-Jan-06 00:59N 36°25' E 025°29'0 0.0
2018-Jan-06 00:29N 36°25' E 025°29'0 0.0
2018-Jan-05 23:59N 36°25' E 025°29'0 0.0
2018-Jan-05 23:29N 36°25' E 025°29'0 0.0
2018-Jan-05 22:59N 36°25' E 025°29'0 0.0
2018-Jan-05 22:29N 36°25' E 025°29'0 0.0
2018-Jan-05 21:59N 36°25' E 025°29'0 0.0
2018-Jan-05 21:29N 36°25' E 025°29'0 0.0
2018-Jan-05 20:59N 36°25' E 025°29'0 0.0
2018-Jan-05 20:29N 36°25' E 025°29'0 0.0
2018-Jan-05 19:59N 36°25' E 025°29'0 0.0
2018-Jan-05 19:29N 36°25' E 025°29'0 0.0
2018-Jan-05 18:59N 36°25' E 025°29'0 0.0
2018-Jan-05 18:29N 36°25' E 025°29'0 0.0
2018-Jan-05 17:59N 36°25' E 025°29'0 0.0
2018-Jan-05 17:29N 36°25' E 025°29'0 0.0
2018-Jan-05 16:59N 36°25' E 025°29'0 0.0
2018-Jan-05 16:29N 36°25' E 025°29'0 0.0
2018-Jan-05 15:59N 36°25' E 025°29'0 0.0
2018-Jan-05 15:29N 36°25' E 025°29'0 0.0
2018-Jan-05 14:59N 36°25' E 025°29'0 0.0
2018-Jan-05 14:29N 36°25' E 025°29'0 0.0
2018-Jan-05 13:59N 36°25' E 025°29'0 0.0
2018-Jan-05 13:29N 36°25' E 025°29'0 0.0
2018-Jan-05 12:59N 36°25' E 025°29'0 0.0
2018-Jan-05 12:29N 36°25' E 025°29'0 0.0
2018-Jan-05 11:59N 36°25' E 025°29'0 0.0
2018-Jan-05 11:29N 36°25' E 025°29'0 0.6
2018-Jan-05 11:00N 36°25' E 025°29'3 6.7
2018-Jan-05 10:30N 36°22' E 025°30'2 4.4
2018-Jan-05 09:58N 36°20' E 025°28'0 0.0
2018-Jan-05 09:28N 36°20' E 025°28'0 0.0
2018-Jan-05 08:58N 36°20' E 025°28'0 0.0
2018-Jan-05 08:28N 36°20' E 025°28'0 0.0
2018-Jan-05 07:58N 36°20' E 025°28'0 0.1
2018-Jan-05 07:28N 36°20' E 025°28'0 0.0
2018-Jan-05 06:55N 36°20' E 025°28'0 0.0
2018-Jan-05 06:25N 36°20' E 025°28'0 0.0
2018-Jan-05 05:55N 36°20' E 025°28'0 0.0
2018-Jan-05 05:28N 36°20' E 025°28'0 0.0
2018-Jan-05 04:58N 36°20' E 025°28'0 0.0
2018-Jan-05 04:28N 36°20' E 025°28'0 0.0
2018-Jan-05 03:55N 36°20' E 025°28'0 0.0
2018-Jan-05 03:25N 36°20' E 025°28'0 0.1
2018-Jan-05 02:55N 36°20' E 025°28'0 0.1
2018-Jan-05 02:28N 36°20' E 025°28'0 0.0
2018-Jan-05 01:58N 36°20' E 025°28'0 0.0
2018-Jan-05 01:22N 36°20' E 025°28'0 0.1
2018-Jan-05 00:58N 36°20' E 025°28'0 0.0
2018-Jan-05 00:28N 36°20' E 025°28'0 0.0
2018-Jan-04 23:58N 36°20' E 025°28'0 0.0
2018-Jan-04 23:28N 36°20' E 025°28'0 0.0
2018-Jan-04 22:58N 36°20' E 025°28'0 0.0
2018-Jan-04 22:28N 36°20' E 025°28'0 0.0
2018-Jan-04 21:58N 36°20' E 025°28'0 0.0
2018-Jan-04 21:28N 36°20' E 025°28'0 0.0
2018-Jan-04 20:58N 36°20' E 025°28'0 0.0
2018-Jan-04 20:28N 36°20' E 025°28'0 0.0
2018-Jan-04 19:58N 36°20' E 025°28'0 0.0
2018-Jan-04 19:25N 36°20' E 025°28'0 0.0
2018-Jan-04 18:58N 36°20' E 025°28'0 0.0
2018-Jan-04 18:28N 36°20' E 025°28'0 0.0
2018-Jan-04 17:58N 36°20' E 025°28'0 0.0
2018-Jan-04 17:28N 36°20' E 025°28'0 0.0
2018-Jan-04 16:58N 36°20' E 025°28'0 0.3
2018-Jan-04 16:23N 36°20' E 025°28'3 7.4
2018-Jan-04 16:00N 36°22' E 025°30'2 4.2
2018-Jan-04 15:29N 36°25' E 025°30'0 0.0
2018-Jan-04 14:59N 36°25' E 025°30'0 0.0
2018-Jan-04 14:20N 36°25' E 025°30'0 0.1
2018-Jan-04 13:59N 36°25' E 025°30'0 0.1
2018-Jan-04 13:29N 36°25' E 025°30'0 0.0
2018-Jan-04 12:56N 36°25' E 025°30'0 0.2
2018-Jan-04 12:26N 36°25' E 025°30'0 0.3
2018-Jan-04 11:59N 36°25' E 025°30'0 0.1
2018-Jan-04 11:29N 36°25' E 025°30'0 0.0
2018-Jan-04 10:59N 36°25' E 025°30'0 0.1
2018-Jan-04 10:29N 36°25' E 025°30'0 0.0
2018-Jan-04 09:59N 36°25' E 025°30'0 0.1
2018-Jan-04 09:29N 36°25' E 025°30'0 0.0
2018-Jan-04 08:59N 36°25' E 025°30'0 0.0
2018-Jan-04 08:29N 36°25' E 025°30'0 0.1
2018-Jan-04 07:56N 36°25' E 025°30'0 0.0
2018-Jan-04 07:29N 36°25' E 025°30'0 0.1
2018-Jan-04 06:56N 36°25' E 025°30'0 0.0
2018-Jan-04 06:29N 36°25' E 025°30'0 0.0
2018-Jan-04 05:59N 36°25' E 025°30'0 0.0
2018-Jan-04 05:29N 36°25' E 025°30'0 0.0
2018-Jan-04 04:59N 36°25' E 025°30'0 0.0
2018-Jan-04 04:23N 36°25' E 025°30'0 0.0
2018-Jan-04 03:59N 36°25' E 025°30'0 0.0
2018-Jan-04 03:29N 36°25' E 025°30'0 0.1
2018-Jan-04 02:59N 36°25' E 025°30'0 0.1
2018-Jan-04 02:29N 36°25' E 025°30'0 0.0
2018-Jan-04 01:59N 36°25' E 025°30'0 0.0
2018-Jan-04 01:29N 36°25' E 025°30'0 0.1
2018-Jan-04 00:56N 36°25' E 025°30'0 0.2
2018-Jan-04 00:29N 36°25' E 025°30'2 3.9
2018-Jan-04 00:00N 36°26' E 025°31'510.5
2018-Jan-03 23:30N 36°31' E 025°34'611.3
2018-Jan-03 23:00N 36°36' E 025°36'611.2
2018-Jan-03 22:30N 36°42' E 025°39'611.3
2018-Jan-03 22:00N 36°47' E 025°41'611.5
2018-Jan-03 21:30N 36°52' E 025°44'611.7
2018-Jan-03 21:00N 36°58' E 025°44'611.6
2018-Jan-03 20:30N 37°04' E 025°44'611.8
2018-Jan-03 20:00N 37°10' E 025°44'611.5
2018-Jan-03 19:30N 37°16' E 025°44'611.5
2018-Jan-03 19:00N 37°21' E 025°46'611.7
2018-Jan-03 18:30N 37°27' E 025°48'611.7
2018-Jan-03 18:00N 37°32' E 025°51'42 1.6
2018-Jan-02 16:03N 37°60' E 026°31'110.4
2018-Jan-02 15:55N 37°59' E 026°33'410.0
2018-Jan-02 15:30N 37°57' E 026°37'  
Track history (hours):
 
Tides and Currents Weather Stations Pressure Air Temp Water Temp Dewpoint Dewpoint Depression Visibility Wind Speed Wind Dir Waves Ship Positions

Naxos

Last reported at 2018-Jan-11 08:30 UTC. Time now 2018-Jan-18 13:56 UTC.
Position N 37°56' E 024°33'.

Length 90 m; draft 4.2 m.

Type: Tanker. MMSI: 241338000.

Date/timePositionNaut miles runAvg speedWind from/ knotsBaromVisibWave heightAir tempDewpointWater temp
2018-Jan-11 08:30N 37°56' E 024°33'5 9.6
2018-Jan-11 08:00N 37°54' E 024°28'11 9.9
2018-Jan-11 06:52N 37°49' E 024°14'4 9.8
2018-Jan-11 06:27N 37°48' E 024°10'  
2018-Jan-07 05:34N 37°40' E 024°05'1 9.4
2018-Jan-07 05:28N 37°39' E 024°05'23 9.7
2018-Jan-07 03:09N 37°28' E 024°30'211.3
2018-Jan-07 03:00N 37°27' E 024°31'611.3
2018-Jan-07 02:30N 37°22' E 024°35'611.0
2018-Jan-07 02:00N 37°17' E 024°38'611.1
2018-Jan-07 01:30N 37°12' E 024°41'1111.2
2018-Jan-07 00:30N 37°03' E 024°49'611.3
2018-Jan-07 00:00N 36°58' E 024°53'611.1
2018-Jan-06 23:30N 36°54' E 024°57'510.8
2018-Jan-06 23:00N 36°50' E 025°03'510.7
2018-Jan-06 22:30N 36°47' E 025°08'510.8
2018-Jan-06 22:00N 36°43' E 025°12'511.0
2018-Jan-06 21:30N 36°39' E 025°17'510.9
2018-Jan-06 21:00N 36°35' E 025°21'611.2
2018-Jan-06 20:30N 36°30' E 025°26'510.7
2018-Jan-06 20:00N 36°26' E 025°30'1 1.9
2018-Jan-06 19:30N 36°25' E 025°29'0 0.1
2018-Jan-06 19:00N 36°25' E 025°29'0 0.1
2018-Jan-06 18:30N 36°25' E 025°29'0 0.0
2018-Jan-06 18:00N 36°25' E 025°29'0 0.1
2018-Jan-06 17:30N 36°25' E 025°29'0 0.0
2018-Jan-06 16:57N 36°25' E 025°29'0 0.0
2018-Jan-06 16:30N 36°25' E 025°29'0 0.0
2018-Jan-06 16:00N 36°25' E 025°29'0 0.0
2018-Jan-06 15:30N 36°25' E 025°29'0 0.0
2018-Jan-06 15:00N 36°25' E 025°29'0 0.0
2018-Jan-06 14:30N 36°25' E 025°29'0 0.2
2018-Jan-06 14:00N 36°25' E 025°29'0 0.6
2018-Jan-06 13:29N 36°25' E 025°29'0 0.0
2018-Jan-06 12:59N 36°25' E 025°29'0 0.0
2018-Jan-06 12:29N 36°25' E 025°29'0 0.0
2018-Jan-06 11:59N 36°25' E 025°29'0 0.0
2018-Jan-06 11:29N 36°25' E 025°29'0 0.0
2018-Jan-06 10:59N 36°25' E 025°29'0 0.0
2018-Jan-06 10:29N 36°25' E 025°29'0 0.0
2018-Jan-06 09:59N 36°25' E 025°29'0 0.0
2018-Jan-06 09:29N 36°25' E 025°29'0 0.0
2018-Jan-06 08:59N 36°25' E 025°29'0 0.0
2018-Jan-06 08:29N 36°25' E 025°29'0 0.0
2018-Jan-06 07:59N 36°25' E 025°29'0 0.0
2018-Jan-06 07:29N 36°25' E 025°29'0 0.0
2018-Jan-06 06:59N 36°25' E 025°29'0 0.0
2018-Jan-06 06:29N 36°25' E 025°29'0 0.0
2018-Jan-06 05:59N 36°25' E 025°29'0 0.0
2018-Jan-06 05:29N 36°25' E 025°29'0 0.0
2018-Jan-06 04:59N 36°25' E 025°29'0 0.0
2018-Jan-06 04:29N 36°25' E 025°29'0 0.0
2018-Jan-06 03:59N 36°25' E 025°29'0 0.0
2018-Jan-06 03:29N 36°25' E 025°29'0 0.0
2018-Jan-06 02:59N 36°25' E 025°29'0 0.0
2018-Jan-06 02:29N 36°25' E 025°29'0 0.0
2018-Jan-06 01:59N 36°25' E 025°29'0 0.0
2018-Jan-06 01:29N 36°25' E 025°29'0 0.0
2018-Jan-06 00:59N 36°25' E 025°29'0 0.0
2018-Jan-06 00:29N 36°25' E 025°29'0 0.0
2018-Jan-05 23:59N 36°25' E 025°29'0 0.0
2018-Jan-05 23:29N 36°25' E 025°29'0 0.0
2018-Jan-05 22:59N 36°25' E 025°29'0 0.0
2018-Jan-05 22:29N 36°25' E 025°29'0 0.0
2018-Jan-05 21:59N 36°25' E 025°29'0 0.0
2018-Jan-05 21:29N 36°25' E 025°29'0 0.0
2018-Jan-05 20:59N 36°25' E 025°29'0 0.0
2018-Jan-05 20:29N 36°25' E 025°29'0 0.0
2018-Jan-05 19:59N 36°25' E 025°29'0 0.0
2018-Jan-05 19:29N 36°25' E 025°29'0 0.0
2018-Jan-05 18:59N 36°25' E 025°29'0 0.0
2018-Jan-05 18:29N 36°25' E 025°29'0 0.0
2018-Jan-05 17:59N 36°25' E 025°29'0 0.0
2018-Jan-05 17:29N 36°25' E 025°29'0 0.0
2018-Jan-05 16:59N 36°25' E 025°29'0 0.0
2018-Jan-05 16:29N 36°25' E 025°29'0 0.0
2018-Jan-05 15:59N 36°25' E 025°29'0 0.0
2018-Jan-05 15:29N 36°25' E 025°29'0 0.0
2018-Jan-05 14:59N 36°25' E 025°29'0 0.0
2018-Jan-05 14:29N 36°25' E 025°29'0 0.0
2018-Jan-05 13:59N 36°25' E 025°29'0 0.0
2018-Jan-05 13:29N 36°25' E 025°29'0 0.0
2018-Jan-05 12:59N 36°25' E 025°29'0 0.0
2018-Jan-05 12:29N 36°25' E 025°29'0 0.0
2018-Jan-05 11:59N 36°25' E 025°29'0 0.0
2018-Jan-05 11:29N 36°25' E 025°29'0 0.6
2018-Jan-05 11:00N 36°25' E 025°29'3 6.7
2018-Jan-05 10:30N 36°22' E 025°30'2 4.4
2018-Jan-05 09:58N 36°20' E 025°28'0 0.0
2018-Jan-05 09:28N 36°20' E 025°28'0 0.0
2018-Jan-05 08:58N 36°20' E 025°28'0 0.0
2018-Jan-05 08:28N 36°20' E 025°28'0 0.0
2018-Jan-05 07:58N 36°20' E 025°28'0 0.1
2018-Jan-05 07:28N 36°20' E 025°28'0 0.0
2018-Jan-05 06:55N 36°20' E 025°28'0 0.0
2018-Jan-05 06:25N 36°20' E 025°28'0 0.0
2018-Jan-05 05:55N 36°20' E 025°28'0 0.0
2018-Jan-05 05:28N 36°20' E 025°28'0 0.0
2018-Jan-05 04:58N 36°20' E 025°28'0 0.0
2018-Jan-05 04:28N 36°20' E 025°28'0 0.0
2018-Jan-05 03:55N 36°20' E 025°28'0 0.0
2018-Jan-05 03:25N 36°20' E 025°28'0 0.1
2018-Jan-05 02:55N 36°20' E 025°28'0 0.1
2018-Jan-05 02:28N 36°20' E 025°28'0 0.0
2018-Jan-05 01:58N 36°20' E 025°28'0 0.0
2018-Jan-05 01:22N 36°20' E 025°28'0 0.1
2018-Jan-05 00:58N 36°20' E 025°28'0 0.0
2018-Jan-05 00:28N 36°20' E 025°28'0 0.0
2018-Jan-04 23:58N 36°20' E 025°28'0 0.0
2018-Jan-04 23:28N 36°20' E 025°28'0 0.0
2018-Jan-04 22:58N 36°20' E 025°28'0 0.0
2018-Jan-04 22:28N 36°20' E 025°28'0 0.0
2018-Jan-04 21:58N 36°20' E 025°28'0 0.0
2018-Jan-04 21:28N 36°20' E 025°28'0 0.0
2018-Jan-04 20:58N 36°20' E 025°28'0 0.0
2018-Jan-04 20:28N 36°20' E 025°28'0 0.0
2018-Jan-04 19:58N 36°20' E 025°28'0 0.0
2018-Jan-04 19:25N 36°20' E 025°28'0 0.0
2018-Jan-04 18:58N 36°20' E 025°28'0 0.0
2018-Jan-04 18:28N 36°20' E 025°28'0 0.0
2018-Jan-04 17:58N 36°20' E 025°28'0 0.0
2018-Jan-04 17:28N 36°20' E 025°28'0 0.0
2018-Jan-04 16:58N 36°20' E 025°28'0 0.3
2018-Jan-04 16:23N 36°20' E 025°28'3 7.4
2018-Jan-04 16:00N 36°22' E 025°30'2 4.2
2018-Jan-04 15:29N 36°25' E 025°30'0 0.0
2018-Jan-04 14:59N 36°25' E 025°30'0 0.0
2018-Jan-04 14:20N 36°25' E 025°30'0 0.1
2018-Jan-04 13:59N 36°25' E 025°30'0 0.1
2018-Jan-04 13:29N 36°25' E 025°30'0 0.0
2018-Jan-04 12:56N 36°25' E 025°30'0 0.2
2018-Jan-04 12:26N 36°25' E 025°30'0 0.3
2018-Jan-04 11:59N 36°25' E 025°30'0 0.1
2018-Jan-04 11:29N 36°25' E 025°30'0 0.0
2018-Jan-04 10:59N 36°25' E 025°30'0 0.1
2018-Jan-04 10:29N 36°25' E 025°30'0 0.0
2018-Jan-04 09:59N 36°25' E 025°30'0 0.1
2018-Jan-04 09:29N 36°25' E 025°30'0 0.0
2018-Jan-04 08:59N 36°25' E 025°30'0 0.0
2018-Jan-04 08:29N 36°25' E 025°30'0 0.1
2018-Jan-04 07:56N 36°25' E 025°30'0 0.0
2018-Jan-04 07:29N 36°25' E 025°30'0 0.1
2018-Jan-04 06:56N 36°25' E 025°30'0 0.0
2018-Jan-04 06:29N 36°25' E 025°30'0 0.0
2018-Jan-04 05:59N 36°25' E 025°30'0 0.0
2018-Jan-04 05:29N 36°25' E 025°30'0 0.0
2018-Jan-04 04:59N 36°25' E 025°30'0 0.0
2018-Jan-04 04:23N 36°25' E 025°30'0 0.0
2018-Jan-04 03:59N 36°25' E 025°30'0 0.0
2018-Jan-04 03:29N 36°25' E 025°30'0 0.1
2018-Jan-04 02:59N 36°25' E 025°30'0 0.1
2018-Jan-04 02:29N 36°25' E 025°30'0 0.0
2018-Jan-04 01:59N 36°25' E 025°30'0 0.0
2018-Jan-04 01:29N 36°25' E 025°30'0 0.1
2018-Jan-04 00:56N 36°25' E 025°30'0 0.2
2018-Jan-04 00:29N 36°25' E 025°30'2 3.9
2018-Jan-04 00:00N 36°26' E 025°31'510.5
2018-Jan-03 23:30N 36°31' E 025°34'611.3
2018-Jan-03 23:00N 36°36' E 025°36'611.2
2018-Jan-03 22:30N 36°42' E 025°39'611.3
2018-Jan-03 22:00N 36°47' E 025°41'611.5
2018-Jan-03 21:30N 36°52' E 025°44'611.7
2018-Jan-03 21:00N 36°58' E 025°44'611.6
2018-Jan-03 20:30N 37°04' E 025°44'611.8
2018-Jan-03 20:00N 37°10' E 025°44'611.5
2018-Jan-03 19:30N 37°16' E 025°44'611.5
2018-Jan-03 19:00N 37°21' E 025°46'611.7
2018-Jan-03 18:30N 37°27' E 025°48'611.7
2018-Jan-03 18:00N 37°32' E 025°51'42 1.6
2018-Jan-02 16:03N 37°60' E 026°31'110.4
2018-Jan-02 15:55N 37°59' E 026°33'410.0
2018-Jan-02 15:30N 37°57' E 026°37'  

Dump ship's entire track history